Погода Санта-Рита-ду-Паса-Куатруна неделю

Сан-Паулу, Бразилия

23 - 29 июня
  • 23июня
    Сегодня
    +13°
    +30°
    Облачно с прояснениями
    ВремяПогодаТемператураВлажностьДавлениеВетер, м/сВероятность осадков
    00:00Небольшая облачность+19°C59 %708 мм3.4 м/с5 %
    03:00Небольшая облачность+18°C65 %707 мм3.2 м/с5 %
    06:00Ясно и безоблачно+14°C66 %706 мм3.0 м/с5 %
    09:00Ясно и безоблачно+21°C53 %709 мм2.4 м/с5 %
    12:00Ясно и безоблачно+28°C36 %710 мм3.1 м/с5 %
    15:00Облачно с прояснениями+30°C31 %708 мм1.8 м/с5 %
    18:00Пасмурно, сплошная облачность+26°C44 %708 мм0.6 м/с5 %
    21:00Ясно и безоблачно+20°C56 %708 мм1.9 м/с5 %
  • 24июня
    Понедельник
    +14°
    +31°
    Ясно и безоблачно
    ВремяПогодаТемператураВлажностьДавлениеВетер, м/сВероятность осадков
    00:00Ясно и безоблачно+21°C55 %708 мм2.9 м/с5 %
    03:00Ясно и безоблачно+19°C61 %707 мм3.1 м/с5 %
    06:00Ясно и безоблачно+14°C64 %706 мм2.0 м/с5 %
    09:00Ясно и безоблачно+20°C54 %709 мм1.5 м/с5 %
    12:00Практически безоблачно+28°C35 %709 мм2.9 м/с5 %
    15:00Ясно и безоблачно+30°C32 %708 мм2.5 м/с5 %
    18:00Ясно и безоблачно+25°C46 %707 мм1.9 м/с5 %
    21:00Ясно и безоблачно+20°C55 %708 мм1.7 м/с5 %
  • 25июня
    Вторник
    +16°
    +31°
    Ясно и безоблачно
    ВремяПогодаТемператураВлажностьДавлениеВетер, м/сВероятность осадков
    00:00Ясно и безоблачно+21°C56 %708 мм2.1 м/с5 %
    03:00Ясно и безоблачно+18°C68 %707 мм1.6 м/с5 %
    06:00Ясно и безоблачно+15°C66 %707 мм2.4 м/с5 %
    09:00Ясно и безоблачно+20°C55 %710 мм2.0 м/с5 %
    12:00Ясно и безоблачно+28°C41 %710 мм2.6 м/с5 %
    15:00Ясно и безоблачно+30°C38 %709 мм1.9 м/с5 %
    18:00Ясно и безоблачно+25°C52 %709 мм2.8 м/с5 %
    21:00Ясно и безоблачно+20°C70 %710 мм3.9 м/с5 %
  • 26июня
    Среда
    +13°
    +31°
    Практически безоблачно
    ВремяПогодаТемператураВлажностьДавлениеВетер, м/сВероятность осадков
    00:00Ясно и безоблачно+18°C87 %710 мм2.8 м/с5 %
    03:00Ясно и безоблачно+17°C92 %709 мм2.6 м/с5 %
    06:00Ясно и безоблачно+17°C82 %708 мм3.4 м/с5 %
    09:00Ясно и безоблачно+21°C68 %710 мм4.1 м/с5 %
    12:00Ясно и безоблачно+29°C45 %710 мм3.8 м/с5 %
    15:00Практически безоблачно+30°C33 %708 мм2.9 м/с5 %
    18:00Облачно с прояснениями+27°C49 %708 мм1.3 м/с5 %
    21:00Небольшая облачность+20°C53 %708 мм1.7 м/с5 %
Мы используем cookies
Соглашаюсь